Time;durP1;ratioP1;P1;durP2;ratioP2;P2;SDS_P1;SDS_P2;PMS_P1;PMS_P2;Temp;Humidity;BMP_temperature;BMP_pressure;BME280_temperature;BME280_humidity;BME280_pressure;Samples;Min_cycle;Max_cycle;Signal;HPM_P1;HPM_P2
2022/05/13 00:00:58;;;;;;;10.20;3.45;;;22.60;38.90;;;;;;20926260;28;20060;-69
2022/05/13 00:11:01;;;;;;;8.03;3.30;;;22.40;38.70;;;;;;20924364;28;20056;-67
2022/05/13 00:21:03;;;;;;;9.45;3.67;;;22.20;38.00;;;;;;20924958;28;20041;-67
2022/05/13 00:31:05;;;;;;;9.97;3.73;;;22.20;37.90;;;;;;20923755;28;20504;-66
2022/05/13 00:41:07;;;;;;;10.20;3.75;;;22.20;37.70;;;;;;20922990;28;20063;-68
2022/05/13 00:51:14;;;;;;;7.97;2.87;;;22.10;37.90;;;;;;20920379;28;20175;-66
2022/05/13 01:01:17;;;;;;;8.57;3.22;;;21.90;38.10;;;;;;20920881;28;20049;-66
2022/05/13 01:11:24;;;;;;;6.03;2.97;;;21.90;38.20;;;;;;20919795;28;20060;-67
2022/05/13 01:21:29;;;;;;;4.57;2.72;;;21.90;38.40;;;;;;20920146;28;20114;-67
2022/05/13 01:31:35;;;;;;;7.78;3.47;;;21.70;38.60;;;;;;20900874;28;20084;-67
2022/05/13 01:41:37;;;;;;;11.90;3.60;;;21.60;39.20;;;;;;20917715;28;20169;-68
2022/05/13 01:51:39;;;;;;;9.30;3.87;;;21.50;39.50;;;;;;20916937;28;20136;-66
2022/05/13 02:01:41;;;;;;;12.17;4.23;;;21.20;40.20;;;;;;20916431;28;20049;-66
2022/05/13 02:11:45;;;;;;;9.70;3.60;;;21.20;40.70;;;;;;20914855;28;20044;-68
2022/05/13 02:21:48;;;;;;;9.40;3.67;;;21.00;41.00;;;;;;20914565;28;20049;-65
2022/05/13 02:31:51;;;;;;;9.23;3.70;;;20.90;43.60;;;;;;20913791;28;20516;-67
2022/05/13 02:41:53;;;;;;;8.27;4.17;;;20.20;46.90;;;;;;20914396;28;20539;-68
2022/05/13 02:51:55;;;;;;;10.50;4.22;;;20.20;47.80;;;;;;20895004;28;20132;-67
2022/05/13 03:01:57;;;;;;;7.88;3.80;;;20.10;47.90;;;;;;20911859;28;20075;-66
2022/05/13 03:12:00;;;;;;;8.43;3.77;;;19.20;50.10;;;;;;20915938;28;20049;-67
2022/05/13 03:22:03;;;;;;;8.60;4.32;;;19.20;50.40;;;;;;20928480;28;20499;-67
2022/05/13 03:32:08;;;;;;;8.20;3.70;;;19.20;50.30;;;;;;20910021;28;20055;-67
2022/05/13 03:42:10;;;;;;;9.18;4.53;;;19.20;50.60;;;;;;20926272;28;20045;-66
2022/05/13 03:52:13;;;;;;;8.45;4.45;;;19.00;51.30;;;;;;20925519;28;20045;-66
2022/05/13 04:02:15;;;;;;;9.40;4.20;;;18.80;51.80;;;;;;20925791;28;20125;-66
2022/05/13 04:22:40;;;;;;;10.50;4.35;;;18.60;52.20;;;;;;20923603;28;20098;-67
2022/05/13 04:32:42;;;;;;;9.65;4.05;;;18.60;52.40;;;;;;20923003;28;20068;-65
2022/05/13 04:42:51;;;;;;;7.33;3.67;;;18.50;52.90;;;;;;20922165;28;20098;-66
2022/05/13 04:52:58;;;;;;;14.33;4.67;;;18.40;53.20;;;;;;20922202;28;20084;-67
2022/05/13 05:03:00;;;;;;;8.25;4.55;;;18.30;53.50;;;;;;20920571;28;20053;-69
2022/05/13 05:13:02;;;;;;;7.60;4.10;;;18.20;54.10;;;;;;20919623;28;20053;-67
2022/05/13 05:23:05;;;;;;;10.95;4.45;;;18.70;52.90;;;;;;20919248;28;20145;-67
2022/05/13 05:33:07;;;;;;;7.40;5.17;;;18.10;54.40;;;;;;20916886;28;20059;-64
2022/05/13 05:43:15;;;;;;;14.55;5.60;;;18.00;54.60;;;;;;20916956;28;20124;-70
2022/05/13 06:03:38;;;;;;;8.48;5.05;;;18.00;55.00;;;;;;20915125;28;20067;-70
2022/05/13 06:13:40;;;;;;;13.50;5.55;;;18.20;54.60;;;;;;20915272;28;20167;-67
2022/05/13 06:23:42;;;;;;;13.25;5.25;;;18.20;54.40;;;;;;20895960;28;20445;-68
2022/05/13 06:33:44;;;;;;;12.27;5.45;;;;;;;;;;20913190;28;20092;-67
2022/05/13 06:43:47;;;;;;;13.20;5.50;;;;;;;;;;20912861;28;20057;-67
2022/05/13 06:53:48;;;;;;;10.90;4.15;;;;;;;;;;20912523;28;20088;-67
2022/05/13 07:03:50;;;;;;;13.90;4.50;;;;;;;;;;20911903;28;20130;-66
2022/05/13 07:13:52;;;;;;;13.63;5.22;;;;;;;;;;20911601;28;20060;-66
2022/05/13 07:23:55;;;;;;;10.10;4.57;;;;;;;;;;20910993;28;20102;-67
2022/05/13 07:33:58;;;;;;;7.20;4.43;;;;;;;;;;20932317;28;20083;-61
2022/05/13 07:44:00;;;;;;;11.03;4.60;;;;;;;;;;20914705;28;20174;-69
2022/05/13 07:54:02;;;;;;;14.10;4.97;;;;;;;;;;20910382;28;20084;-68
2022/05/13 08:04:04;;;;;;;13.23;5.33;;;;;;;;;;20922262;28;20441;-69
2022/05/13 08:14:06;;;;;;;6.77;3.80;;;;;;;;;;20924616;28;20060;-69
2022/05/13 08:24:09;;;;;;;10.07;4.45;;;;;;;;;;20923963;28;20092;-69
2022/05/13 08:34:12;;;;;;;15.65;4.80;;;;;;;;;;20925093;28;20405;-65
2022/05/13 08:44:16;;;;;;;12.38;3.97;;;;;;;;;;20991386;28;20539;-68
2022/05/13 08:54:18;;;;;;;;;;;;;;;;;;20944638;28;20091;-63
2022/05/13 09:04:40;;;;;;;10.68;4.80;;;;;;;;;;20921838;28;20288;-68
2022/05/13 09:14:52;;;;;;;9.50;3.97;;;;;;;;;;20917484;28;20462;-71
2022/05/13 09:24:54;;;;;;;16.48;5.40;;;;;;;;;;20952943;28;20044;-67
2022/05/13 09:35:05;;;;;;;8.55;4.38;;;;;;;;;;21001601;28;20044;-67
2022/05/13 09:45:19;;;;;;;11.18;4.00;;;;;;;;;;20999464;28;20129;-71
2022/05/13 09:55:32;;;;;;;18.52;8.73;;;;;;;;;;20997767;28;20079;-70
2022/05/13 10:05:35;;;;;;;15.88;4.32;;;;;;;;;;20969288;28;20132;-67
2022/05/13 10:15:36;;;;;;;;;;;;;;;;;;20960381;28;20477;-62
2022/05/13 10:25:48;;;;;;;12.33;4.53;;;;;;;;;;20989243;28;19921;-64
2022/05/13 10:35:57;;;;;;;11.38;3.83;;;26.20;35.50;;;;;;20963140;28;20083;-69
2022/05/13 10:46:21;;;;;;;14.98;5.00;;;25.60;36.70;;;;;;20961878;28;20132;-59
2022/05/13 10:56:46;;;;;;;15.18;4.60;;;25.80;36.50;;;;;;20950677;28;20134;-60
2022/05/13 11:06:57;;;;;;;11.63;4.13;;;26.10;35.80;;;;;;20988453;28;20051;-60
2022/05/13 11:17:18;;;;;;;14.23;4.20;;;26.10;35.80;;;;;;20992262;28;20135;-61
2022/05/13 11:27:52;;;;;;;6.18;3.63;;;26.40;35.50;;;;;;20993369;28;20201;-60
2022/05/13 11:38:01;;;;;;;6.70;3.22;;;26.70;33.30;;;;;;20987996;28;20049;-65
2022/05/13 11:48:44;;;;;;;12.07;4.28;;;26.60;34.10;;;;;;20990307;28;20075;-66
2022/05/13 11:58:53;;;;;;;8.57;3.13;;;26.70;32.90;;;;;;21009095;28;20084;-68
2022/05/13 12:08:57;;;;;;;10.50;2.97;;;27.20;31.20;;;;;;21008765;28;20048;-63
2022/05/13 12:19:20;;;;;;;7.43;2.85;;;27.10;30.40;;;;;;21007964;28;20048;-65
2022/05/13 12:29:32;;;;;;;7.80;3.35;;;27.70;28.80;;;;;;21006665;28;20052;-61
2022/05/13 12:39:52;;;;;;;9.45;3.58;;;27.60;29.50;;;;;;21006261;28;20135;-61
2022/05/13 12:50:17;;;;;;;7.80;3.42;;;27.70;30.20;;;;;;21006473;28;20102;-62
2022/05/13 13:00:41;;;;;;;7.60;3.28;;;27.90;28.00;;;;;;20985848;28;20073;-63
2022/05/13 13:11:03;;;;;;;7.22;2.88;;;28.10;28.00;;;;;;20986134;28;20076;-72
2022/05/13 13:21:09;;;;;;;4.53;2.58;;;28.10;28.40;;;;;;21002205;28;20504;-70
2022/05/13 13:31:21;;;;;;;7.63;3.22;;;28.20;28.10;;;;;;20984356;28;20098;-71
2022/05/13 13:41:33;;;;;;;8.32;2.72;;;28.40;27.50;;;;;;21002440;28;20048;-72
2022/05/13 13:51:46;;;;;;;7.78;3.05;;;28.60;28.30;;;;;;20981378;28;20049;-72
2022/05/13 14:01:50;;;;;;;12.43;3.95;;;28.50;27.00;;;;;;20998380;28;20083;-72
2022/05/13 14:11:53;;;;;;;10.35;3.03;;;28.70;27.50;;;;;;20998278;28;20049;-69
2022/05/13 14:22:04;;;;;;;8.77;2.90;;;28.80;27.60;;;;;;20997376;28;20385;-71
2022/05/13 14:32:10;;;;;;;5.28;2.85;;;28.90;26.50;;;;;;20997401;28;20052;-70
2022/05/13 14:42:34;;;;;;;6.97;2.95;;;28.80;26.20;;;;;;20997913;28;20127;-71
2022/05/13 14:52:54;;;;;;;6.05;2.97;;;28.80;27.20;;;;;;20977675;28;20052;-71
2022/05/13 15:03:04;;;;;;;6.43;2.58;;;28.80;27.20;;;;;;20995569;28;20048;-67
2022/05/13 15:13:06;;;;;;;5.78;2.65;;;29.10;27.10;;;;;;20990110;28;20416;-68
2022/05/13 15:23:08;;;;;;;12.52;3.25;;;29.00;27.00;;;;;;21011582;28;20053;-64
2022/05/13 15:33:10;;;;;;;8.93;3.42;;;29.10;26.50;;;;;;21009538;28;20053;-66
2022/05/13 15:43:11;;;;;;;7.25;2.67;;;28.90;26.90;;;;;;21010111;28;20515;-63
2022/05/13 15:53:14;;;;;;;6.03;2.47;;;29.10;26.70;;;;;;21009052;28;20049;-60
2022/05/13 16:03:16;;;;;;;6.53;2.50;;;29.10;26.10;;;;;;21008024;28;20185;-57
2022/05/13 16:13:25;;;;;;;5.65;2.35;;;29.20;26.20;;;;;;21006403;28;20493;-61
2022/05/13 16:23:33;;;;;;;6.97;2.47;;;29.40;24.90;;;;;;21005437;28;20049;-60
2022/05/13 16:33:35;;;;;;;5.85;2.55;;;29.30;24.90;;;;;;20987087;28;20450;-58
2022/05/13 16:43:37;;;;;;;6.25;2.40;;;29.30;24.60;;;;;;21004750;28;20048;-65
2022/05/13 16:53:42;;;;;;;7.50;2.85;;;29.30;24.90;;;;;;21004098;28;20052;-62
2022/05/13 17:03:44;;;;;;;5.60;2.30;;;29.20;25.30;;;;;;21003775;28;20044;-60
2022/05/13 17:24:15;;;;;;;7.03;2.80;;;29.10;24.20;;;;;;20987007;28;20480;-61
2022/05/13 17:34:17;;;;;;;12.20;3.03;;;29.10;24.70;;;;;;21001084;28;20052;-61
2022/05/13 17:44:19;;;;;;;5.43;3.13;;;29.00;25.30;;;;;;21001047;28;20052;-62
2022/05/13 17:54:21;;;;;;;5.20;2.10;;;28.90;25.50;;;;;;20999317;28;20082;-62
2022/05/13 18:04:23;;;;;;;6.45;2.50;;;28.70;25.40;;;;;;20998402;28;20060;-61
2022/05/13 18:14:25;;;;;;;9.48;2.90;;;28.70;25.20;;;;;;20980361;28;20143;-58
2022/05/13 18:24:26;;;;;;;10.10;3.38;;;28.60;26.20;;;;;;20996985;28;20052;-62
2022/05/13 18:34:28;;;;;;;7.38;2.83;;;28.40;25.90;;;;;;20996204;28;20055;-64
2022/05/13 18:54:50;;;;;;;7.00;3.47;;;28.00;26.40;;;;;;20996341;28;20131;-57
2022/05/13 19:04:52;;;;;;;8.27;3.35;;;27.70;26.70;;;;;;20996268;28;20500;-70
2022/05/13 19:14:54;;;;;;;10.77;3.50;;;27.60;27.50;;;;;;20995018;28;20056;-66
2022/05/13 19:24:55;;;;;;;7.15;3.45;;;27.40;27.10;;;;;;20995680;28;20045;-75
2022/05/13 19:34:58;;;;;;;10.45;4.50;;;27.30;26.80;;;;;;20994030;28;20044;-71
2022/05/13 19:44:59;;;;;;;7.40;3.40;;;27.10;27.40;;;;;;20994378;28;20079;-75
2022/05/13 19:55:02;;;;;;;6.90;4.13;;;26.90;27.90;;;;;;20999657;28;20495;-74
2022/05/13 20:15:24;;;;;;;9.68;3.92;;;26.70;28.80;;;;;;21010444;28;20102;-75
2022/05/13 20:25:26;;;;;;;7.75;3.90;;;26.40;29.60;;;;;;21009236;28;20504;-74
2022/05/13 20:35:28;;;;;;;10.25;4.18;;;26.30;30.30;;;;;;21008980;28;20040;-77
2022/05/13 20:45:30;;;;;;;;;;;26.10;31.30;;;;;;21009266;28;20056;-76
2022/05/13 20:55:33;;;;;;;10.17;4.60;;;25.90;31.90;;;;;;21010331;28;20353;-77
2022/05/13 21:05:43;;;;;;;11.98;6.90;;;25.70;32.80;;;;;;21005803;28;20379;-74
2022/05/13 21:15:45;;;;;;;12.13;5.65;;;25.60;33.30;;;;;;21007425;28;20052;-65
2022/05/13 21:25:48;;;;;;;12.63;7.10;;;25.40;33.90;;;;;;20991096;28;20177;-70
2022/05/13 21:46:09;;;;;;;11.82;6.97;;;25.00;34.50;;;;;;21001608;28;20028;-72
2022/05/13 21:56:11;;;;;;;13.55;7.40;;;24.90;34.80;;;;;;21001190;28;20055;-67
2022/05/13 22:06:13;;;;;;;18.37;10.67;;;24.90;34.90;;;;;;21002188;28;20064;-66
2022/05/13 22:16:15;;;;;;;19.27;12.45;;;24.70;35.40;;;;;;20998531;28;20052;-62
2022/05/13 22:26:17;;;;;;;22.08;14.25;;;24.60;36.20;;;;;;20981159;28;20067;-61
2022/05/13 22:36:19;;;;;;;26.15;15.13;;;24.60;36.70;;;;;;20997174;28;20076;-68
2022/05/13 22:46:20;;;;;;;21.55;11.95;;;24.40;37.00;;;;;;20997451;28;20053;-61
2022/05/13 22:56:22;;;;;;;17.60;8.73;;;24.40;37.10;;;;;;21000608;28;20122;-60
2022/05/13 23:16:44;;;;;;;16.27;7.82;;;24.20;38.30;;;;;;20995440;28;20091;-65
2022/05/13 23:26:47;;;;;;;16.60;6.27;;;24.00;39.10;;;;;;20995631;28;20052;-64
2022/05/13 23:36:49;;;;;;;13.95;6.60;;;23.60;39.80;;;;;;20993348;28;20089;-67
2022/05/13 23:46:50;;;;;;;13.87;9.37;;;23.20;40.60;;;;;;21010125;28;20052;-69
2022/05/13 23:56:53;;;;;;;16.93;10.13;;;23.00;40.80;;;;;;20992512;28;20040;-65
